Main page
METAR-TAF:

METAR-TAF

Airports :

Kalamazoo/Battle Creek International Airport

Kalamazoo / Battle Creek, Michigan, United States

latitude: 42-13-45N, longitude: 085-32-47W, elevation: 872 ft

Current weather observation

The report was made 47 minutes ago, at 11:53 UTC
Wind 8 mph from the Northwest
Temperature 21°F
Humidity 58%
Pressure 30.38 in. Hg
Visibility: 10 miles
Clear sky

METAR: KAZO 291153Z 31007KT 10SM CLR M06/M13 A3038 RMK AO2 SLP302 70002 T10561128 11022 21056 52016 $

Time: 07:40 (12:40 UTC)

Forecast

The report was made 1 hour and 0 minutes ago, at 11:40 UTC
Forecast valid from 29 at 12 UTC to 01 at 12 UTC
Wind 10 mph from the West/Northwest
Visibility: 6 miles
Clear sky
From 29 at 1800 UTC
Wind 12 mph from the West/Southwest
Visibility: 6 miles
Few clouds at a height of 8000 ft
From 01 at 0000 UTC
Wind 8 mph from the South
Visibility: 6 miles
Clear sky

TAF: KAZO 291140Z 2912/0112 30009KT P6SM SKC FM291800 24010KT P6SM FEW080 FM010000 19007KT P6SM SKC

Weather observations and forecasts of more than 4000 airports (METAR and TAF reports).

The available stations are represented by yellow and red dots on the map.

Hover mouse over dot to see the name of the station.

Then click to see weather observations and forecasts.

To change the map : click on the green buttons with a black cross to zoom in, on the green button with a dash to zoom out, or on the green arrows for adjacent maps.


METAR-TAF: